Time;durP1;ratioP1;P1;durP2;ratioP2;P2;SDS_P1;SDS_P2;PMS_P1;PMS_P2;Temp;Humidity;BMP_temperature;BMP_pressure;BME280_temperature;BME280_humidity;BME280_pressure;Samples;Min_cycle;Max_cycle;Signal;HPM_P1;HPM_P2
2022/10/12 00:01:21;;;;;;;13.55;5.35;;;;;;;1.24;93.99;99518.88;4155104;28;20033;-71
2022/10/12 00:03:22;;;;;;;12.68;6.18;;;;;;;1.13;94.34;99514.63;4156416;28;20115;-71
2022/10/12 00:05:22;;;;;;;9.32;5.38;;;;;;;1.00;94.65;99528.97;4156283;28;20434;-71
2022/10/12 00:07:23;;;;;;;8.77;5.22;;;;;;;0.92;95.80;99513.25;4155149;28;20037;-71
2022/10/12 00:09:23;;;;;;;9.38;4.85;;;;;;;0.86;96.60;99523.38;4155807;28;20128;-71
2022/10/12 00:11:26;;;;;;;11.30;5.05;;;;;;;0.86;98.10;99520.66;4157102;28;20448;-71
2022/10/12 00:13:27;;;;;;;12.13;5.90;;;;;;;0.93;97.56;99521.13;4156631;28;20056;-70
2022/10/12 00:15:27;;;;;;;14.10;10.32;;;;;;;0.91;96.79;99512.44;4155465;28;20038;-71
2022/10/12 00:17:28;;;;;;;12.68;6.50;;;;;;;0.84;97.52;99520.13;4156732;28;20370;-71
2022/10/12 00:19:28;;;;;;;9.23;5.78;;;;;;;0.77;98.14;99520.47;4155144;28;20037;-71
2022/10/12 00:21:29;;;;;;;9.60;5.95;;;;;;;0.76;99.51;99516.13;4155116;28;20103;-71
2022/10/12 00:23:30;;;;;;;10.32;5.70;;;;;;;0.88;99.04;99517.63;4156850;28;20144;-71
2022/10/12 00:25:35;;;;;;;10.10;5.07;;;;;;;0.93;97.93;99510.22;4155518;28;20041;-71
2022/10/12 00:27:35;;;;;;;10.23;5.10;;;;;;;0.95;97.17;99510.75;4155324;28;20136;-70
2022/10/12 00:29:36;;;;;;;9.93;5.35;;;;;;;0.98;96.80;99499.25;4154580;28;20089;-71
2022/10/12 00:31:36;;;;;;;11.02;5.53;;;;;;;1.01;96.40;99503.34;4156068;28;20048;-71
2022/10/12 00:33:37;;;;;;;9.63;4.97;;;;;;;0.97;95.35;99511.25;4155414;28;20371;-70
2022/10/12 00:35:38;;;;;;;10.90;5.80;;;;;;;0.85;96.21;99513.59;4154926;28;20385;-71
2022/10/12 00:37:38;;;;;;;11.20;4.97;;;;;;;0.85;97.33;99508.13;4157032;28;20055;-71
2022/10/12 00:39:38;;;;;;;14.23;6.53;;;;;;;0.71;96.19;99504.47;4154502;28;20050;-71
2022/10/12 00:41:41;;;;;;;9.20;5.55;;;;;;;0.68;98.12;99511.31;4155624;28;20057;-70
2022/10/12 00:43:43;;;;;;;9.73;5.93;;;;;;;0.67;97.27;99506.16;4154415;28;20381;-70
2022/10/12 00:45:43;;;;;;;11.20;5.85;;;;;;;0.57;96.33;99505.13;4155567;28;20045;-71
2022/10/12 00:47:49;;;;;;;11.95;6.18;;;;;;;0.60;97.99;99511.13;4155057;28;20204;-71
2022/10/12 00:50:04;;;;;;;12.98;6.20;;;;;;;0.61;97.42;99510.81;4159228;28;20777;-71
2022/10/12 00:52:08;;;;;;;13.82;6.25;;;;;;;0.44;96.23;99505.81;4154745;28;20042;-71
2022/10/12 00:54:13;;;;;;;11.60;6.03;;;;;;;0.44;97.93;99502.28;4160766;28;20707;-70
2022/10/12 00:56:21;;;;;;;10.00;5.88;;;;;;;0.40;98.63;99506.66;4158572;28;20354;-71
2022/10/12 00:58:21;;;;;;;12.02;6.55;;;;;;;0.29;97.89;99505.94;4155003;28;20095;-71
2022/10/12 01:00:22;;;;;;;10.88;6.22;;;;;;;0.22;97.98;99497.28;4154841;28;20401;-70
2022/10/12 01:02:25;;;;;;;12.05;7.05;;;;;;;0.24;99.20;99508.69;4155397;28;20041;-70
2022/10/12 01:04:26;;;;;;;14.70;7.18;;;;;;;0.20;99.25;99500.31;4158176;28;20132;-71
2022/10/12 01:06:27;;;;;;;12.75;6.82;;;;;;;0.18;99.43;99501.69;4155250;28;20076;-71
2022/10/12 01:08:28;;;;;;;11.63;5.97;;;;;;;0.19;100.00;99500.59;4155523;28;20029;-71
2022/10/12 01:10:28;;;;;;;11.23;6.32;;;;;;;0.28;100.00;99516.03;4158129;28;20050;-70
2022/10/12 01:12:29;;;;;;;8.48;5.57;;;;;;;0.24;98.84;99520.41;4154848;28;20073;-70
2022/10/12 01:14:29;;;;;;;12.20;5.47;;;;;;;0.20;98.32;99513.09;4154468;28;20381;-70
2022/10/12 01:16:44;;;;;;;11.63;5.22;;;;;;;0.20;99.22;99518.53;4155758;28;20076;-71
2022/10/12 01:18:48;;;;;;;10.40;5.43;;;;;;;0.14;99.63;99525.13;4154062;28;20050;-70
2022/10/12 01:21:01;;;;;;;13.95;6.15;;;;;;;0.10;100.00;99515.91;4153676;28;20067;-70
2022/10/12 01:23:20;;;;;;;9.45;5.40;;;;;;;0.15;100.00;99513.13;4154343;28;20072;-70
2022/10/12 01:25:39;;;;;;;11.00;5.40;;;;;;;0.18;100.00;99513.38;4154937;28;20452;-70
2022/10/12 01:27:50;;;;;;;11.57;5.50;;;;;;;0.24;100.00;99511.41;4158916;28;20053;-70
2022/10/12 01:30:08;;;;;;;10.13;5.63;;;;;;;0.23;99.85;99516.06;4154280;28;20045;-70
2022/10/12 01:32:35;;;;;;;9.13;5.20;;;;;;;0.16;99.22;99510.13;4158772;28;20049;-70
2022/10/12 01:34:57;;;;;;;7.32;4.63;;;;;;;0.16;99.55;99512.84;4154346;28;20490;-70
2022/10/12 01:37:11;;;;;;;11.68;5.50;;;;;;;0.13;99.56;99515.31;4153692;28;20046;-70
2022/10/12 01:39:20;;;;;;;10.02;4.53;;;;;;;0.02;98.80;99513.78;4154679;28;20212;-70
2022/10/12 01:41:46;;;;;;;10.45;5.30;;;;;;;-0.04;99.59;99510.28;4154850;28;20464;-70
2022/10/12 01:43:48;;;;;;;10.30;4.95;;;;;;;-0.08;98.87;99509.25;4154101;28;20725;-70
2022/10/12 01:45:49;;;;;;;8.27;4.85;;;;;;;0.00;100.00;99511.38;4154327;28;20107;-70
2022/10/12 01:47:52;;;;;;;8.98;4.95;;;;;;;-0.01;100.00;99507.00;4154861;28;20049;-70
2022/10/12 01:49:53;;;;;;;9.98;3.97;;;;;;;-0.08;100.00;99509.25;4153969;28;20052;-70
2022/10/12 01:52:17;;;;;;;7.53;4.75;;;;;;;-0.14;99.73;99513.91;4154129;28;20497;-70
2022/10/12 01:54:39;;;;;;;13.50;5.30;;;;;;;-0.22;99.84;99510.97;4152638;28;20049;-70
2022/10/12 01:56:49;;;;;;;11.73;5.50;;;;;;;-0.25;100.00;99512.31;4155116;28;20132;-70
2022/10/12 01:59:14;;;;;;;13.18;5.25;;;;;;;-0.28;100.00;99513.69;4154054;28;20042;-70
2022/10/12 02:01:28;;;;;;;9.63;4.70;;;;;;;-0.30;100.00;99504.22;4154178;28;20939;-70
2022/10/12 02:03:40;;;;;;;14.52;4.65;;;;;;;-0.26;100.00;99504.44;4153439;28;20040;-70
2022/10/12 02:05:41;;;;;;;11.00;4.60;;;;;;;-0.24;100.00;99510.44;4154565;28;20390;-70
2022/10/12 02:07:47;;;;;;;9.23;4.28;;;;;;;-0.25;100.00;99512.31;4155398;28;20259;-70
2022/10/12 02:09:51;;;;;;;8.75;3.92;;;;;;;-0.26;100.00;99507.97;4156370;28;20049;-70
2022/10/12 02:11:56;;;;;;;8.65;3.92;;;;;;;-0.30;100.00;99507.75;4157361;28;20517;-70
2022/10/12 02:14:02;;;;;;;7.68;4.00;;;;;;;-0.36;100.00;99510.75;4159135;28;20052;-70
2022/10/12 02:16:11;;;;;;;11.68;4.82;;;;;;;-0.39;100.00;99509.44;4157229;28;20053;-70
2022/10/12 02:18:16;;;;;;;6.90;4.13;;;;;;;-0.48;100.00;99500.25;4156418;28;20033;-70
2022/10/12 02:20:19;;;;;;;11.15;4.97;;;;;;;-0.54;100.00;99501.34;4156681;28;20236;-70
2022/10/12 02:22:19;;;;;;;12.15;5.72;;;;;;;-0.57;100.00;99500.00;4158436;28;20029;-70
2022/10/12 02:24:22;;;;;;;12.55;4.75;;;;;;;-0.59;100.00;99504.91;4156710;28;20788;-70
2022/10/12 02:26:23;;;;;;;10.43;4.65;;;;;;;-0.61;100.00;99501.66;4155974;28;20045;-70
2022/10/12 02:28:27;;;;;;;10.80;5.15;;;;;;;-0.63;100.00;99500.31;4156794;28;20052;-70
2022/10/12 02:30:29;;;;;;;14.32;5.30;;;;;;;-0.64;100.00;99496.78;4158073;28;20037;-70
2022/10/12 02:32:53;;;;;;;10.30;5.00;;;;;;;-0.67;100.00;99496.50;4156559;28;20049;-70
2022/10/12 02:35:18;;;;;;;12.60;5.15;;;;;;;-0.70;100.00;99491.66;4155684;28;20107;-70
2022/10/12 02:37:24;;;;;;;8.80;4.53;;;;;;;-0.68;100.00;99497.59;4156964;28;20045;-70
2022/10/12 02:39:30;;;;;;;9.30;5.40;;;;;;;-0.75;100.00;99492.47;4156813;28;20084;-70
2022/10/12 02:41:37;;;;;;;7.18;4.40;;;;;;;-0.80;100.00;99483.56;4157045;28;20486;-70
2022/10/12 02:43:43;;;;;;;17.00;6.30;;;;;;;-0.83;100.00;99484.91;4161278;28;20041;-70
2022/10/12 02:45:46;;;;;;;10.13;4.65;;;;;;;-0.80;100.00;99484.38;4156901;28;20049;-70
2022/10/12 02:47:50;;;;;;;14.02;4.70;;;;;;;-0.80;100.00;99476.22;4157223;28;20049;-70
2022/10/12 02:49:52;;;;;;;11.75;4.97;;;;;;;-0.74;100.00;99469.66;4156137;28;20628;-70
2022/10/12 02:51:54;;;;;;;12.73;5.25;;;;;;;-0.73;100.00;99482.16;4157882;28;20095;-70
2022/10/12 02:53:55;;;;;;;12.85;5.32;;;;;;;-0.75;100.00;99481.59;4156494;28;20095;-70
2022/10/12 02:56:04;;;;;;;9.60;5.05;;;;;;;-0.77;100.00;99469.41;4157106;28;20041;-70
2022/10/12 02:58:05;;;;;;;9.18;5.00;;;;;;;-0.80;100.00;99472.69;4155894;28;20045;-69
2022/10/12 03:00:06;;;;;;;8.95;4.90;;;;;;;-0.83;100.00;99476.75;4156392;28;20035;-70
2022/10/12 03:02:07;;;;;;;14.02;5.68;;;;;;;-0.78;100.00;99474.03;4157680;28;20029;-70
2022/10/12 03:04:08;;;;;;;15.48;6.03;;;;;;;-0.86;100.00;99466.44;4156153;28;20032;-70
2022/10/12 03:06:08;;;;;;;9.63;4.65;;;;;;;-0.87;100.00;99473.78;4156900;28;20033;-70
2022/10/12 03:08:09;;;;;;;9.80;5.00;;;;;;;-0.88;100.00;99468.63;4156736;28;20095;-70
2022/10/12 03:10:09;;;;;;;13.23;5.57;;;;;;;-0.92;100.00;99473.00;4156689;28;20430;-70
2022/10/12 03:12:10;;;;;;;15.02;5.30;;;;;;;-0.98;100.00;99474.13;4155982;28;20029;-70
2022/10/12 03:14:11;;;;;;;12.93;4.80;;;;;;;-1.04;100.00;99467.06;4158099;28;20594;-70
2022/10/12 03:16:12;;;;;;;9.13;5.40;;;;;;;-1.05;100.00;99473.59;4156939;28;20442;-70
2022/10/12 03:18:12;;;;;;;13.70;5.15;;;;;;;-1.07;100.00;99473.88;4162340;28;20022;-70
2022/10/12 03:20:12;;;;;;;13.02;6.05;;;;;;;-1.07;100.00;99475.78;4155083;28;20025;-70
2022/10/12 03:22:13;;;;;;;13.23;5.45;;;;;;;-1.08;100.00;99479.56;4156106;28;20033;-70
2022/10/12 03:24:13;;;;;;;12.57;6.30;;;;;;;-1.11;100.00;99475.50;4156999;28;20056;-70
2022/10/12 03:26:13;;;;;;;10.00;5.25;;;;;;;-1.11;100.00;99480.13;4155833;28;20478;-70
2022/10/12 03:28:14;;;;;;;14.52;5.15;;;;;;;-1.16;100.00;99481.78;4156693;28;20843;-70
2022/10/12 03:30:14;;;;;;;10.77;5.25;;;;;;;-1.07;100.00;99481.22;4156034;28;20132;-70
2022/10/12 03:32:15;;;;;;;9.45;5.43;;;;;;;-1.01;100.00;99480.91;4161108;28;20036;-70
2022/10/12 03:34:15;;;;;;;10.25;5.55;;;;;;;-1.01;100.00;99478.19;4156669;28;20065;-70
2022/10/12 03:36:15;;;;;;;12.52;5.65;;;;;;;-0.96;100.00;99482.78;4157102;28;20112;-70
2022/10/12 03:38:17;;;;;;;12.95;6.30;;;;;;;-0.88;100.00;99487.66;4156588;28;20426;-70
2022/10/12 03:40:17;;;;;;;15.43;6.20;;;;;;;-0.81;100.00;99477.31;4154548;28;20057;-70
2022/10/12 03:42:17;;;;;;;13.82;5.28;;;;;;;-0.81;100.00;99480.03;4156755;28;20061;-70
2022/10/12 03:44:18;;;;;;;13.18;5.68;;;;;;;-0.80;100.00;99484.38;4156485;28;20116;-70
2022/10/12 03:46:18;;;;;;;13.30;5.50;;;;;;;-0.77;100.00;99470.19;4155323;28;20525;-70
2022/10/12 03:48:18;;;;;;;15.90;5.63;;;;;;;-0.66;100.00;99471.00;4155652;28;20116;-70
2022/10/12 03:50:19;;;;;;;10.88;5.70;;;;;;;-0.69;100.00;99475.06;4158159;28;20117;-70
2022/10/12 03:52:19;;;;;;;12.45;5.03;;;;;;;-0.70;100.00;99468.00;4157890;28;20029;-70
2022/10/12 03:54:19;;;;;;;9.73;4.88;;;;;;;-0.77;99.19;99462.06;4156223;28;20033;-70
2022/10/12 03:56:20;;;;;;;17.10;5.25;;;;;;;-0.79;98.93;99471.59;4160920;28;20343;-70
2022/10/12 03:58:20;;;;;;;11.52;5.35;;;;;;;-0.84;99.61;99466.97;4155982;28;23193;-70
2022/10/12 04:00:21;;;;;;;12.57;5.28;;;;;;;-0.84;100.00;99464.25;4155045;28;20110;-70
2022/10/12 04:02:21;;;;;;;12.45;5.53;;;;;;;-0.83;100.00;99473.22;4155558;28;20060;-70
2022/10/12 04:04:21;;;;;;;13.57;5.35;;;;;;;-0.95;100.00;99477.09;4159629;28;20043;-70
2022/10/12 04:06:22;;;;;;;12.20;5.07;;;;;;;-1.00;100.00;99484.44;4157618;28;20046;-70
2022/10/12 04:08:23;;;;;;;13.50;5.65;;;;;;;-0.98;100.00;99474.94;4155247;28;20988;-70
2022/10/12 04:10:24;;;;;;;12.05;5.88;;;;;;;-0.93;100.00;99476.81;4156001;28;20095;-70
2022/10/12 04:12:24;;;;;;;11.07;5.03;;;;;;;-0.90;100.00;99479.78;4155816;28;20433;-70
2022/10/12 04:14:24;;;;;;;14.63;5.97;;;;;;;-0.93;100.00;99477.59;4155208;28;20103;-70
2022/10/12 04:16:25;;;;;;;12.18;5.50;;;;;;;-0.92;100.00;99473.00;4160477;28;20120;-70
2022/10/12 04:18:25;;;;;;;11.88;4.63;;;;;;;-1.00;99.97;99479.00;4155309;28;20049;-70
2022/10/12 04:20:25;;;;;;;10.60;5.03;;;;;;;-1.07;99.33;99473.88;4154961;28;20545;-70
2022/10/12 04:22:26;;;;;;;10.23;5.10;;;;;;;-1.13;99.09;99467.66;4156598;28;20048;-70
2022/10/12 04:24:26;;;;;;;11.50;5.78;;;;;;;-1.22;98.94;99469.31;4155724;28;20136;-70
2022/10/12 04:26:26;;;;;;;11.35;5.28;;;;;;;-1.27;99.14;99466.59;4155546;28;20072;-70
2022/10/12 04:28:27;;;;;;;8.75;5.05;;;;;;;-1.33;99.06;99456.84;4154150;28;20123;-70
2022/10/12 04:30:27;;;;;;;12.80;5.38;;;;;;;-1.35;99.74;99459.03;4155728;28;20470;-70
2022/10/12 04:32:29;;;;;;;12.32;5.38;;;;;;;-1.40;99.85;99471.81;4154513;28;20477;-70
2022/10/12 04:34:29;;;;;;;10.75;5.00;;;;;;;-1.47;100.00;99472.09;4154151;28;20516;-70
2022/10/12 04:36:29;;;;;;;16.52;5.90;;;;;;;-1.48;100.00;99471.28;4158704;28;20045;-70
2022/10/12 04:38:30;;;;;;;11.68;5.38;;;;;;;-1.38;100.00;99469.63;4154952;28;20057;-70
2022/10/12 04:40:30;;;;;;;19.73;6.03;;;;;;;-1.33;100.00;99466.88;4155434;28;20487;-70
2022/10/12 04:42:30;;;;;;;12.70;5.85;;;;;;;-1.24;100.00;99470.66;4157855;28;20048;-70
2022/10/12 04:44:31;;;;;;;16.02;6.22;;;;;;;-1.19;100.00;99460.59;4158347;28;20809;-70
2022/10/12 04:46:32;;;;;;;11.57;5.95;;;;;;;-1.16;100.00;99464.66;4154735;28;20204;-70
2022/10/12 04:48:32;;;;;;;13.60;5.63;;;;;;;-1.11;100.00;99453.78;4155124;28;20553;-70
2022/10/12 04:50:33;;;;;;;20.67;5.65;;;;;;;-1.08;100.00;99460.56;4156433;28;20065;-70
2022/10/12 04:52:34;;;;;;;11.30;5.75;;;;;;;-1.02;100.00;99460.25;4154976;28;20081;-70
2022/10/12 04:54:34;;;;;;;13.68;5.75;;;;;;;-1.06;100.00;99461.94;4155043;28;20053;-70
2022/10/12 04:56:35;;;;;;;15.38;6.68;;;;;;;-1.06;100.00;99471.97;4155063;28;20049;-70
2022/10/12 04:58:35;;;;;;;13.60;6.57;;;;;;;-1.05;100.00;99468.97;4155076;28;20049;-70
2022/10/12 05:00:35;;;;;;;19.08;6.20;;;;;;;-1.05;100.00;99460.84;4154324;28;20056;-70
2022/10/12 05:02:36;;;;;;;12.55;5.70;;;;;;;-1.00;100.00;99463.50;4157608;28;20433;-70
2022/10/12 05:04:36;;;;;;;12.27;5.65;;;;;;;-1.04;99.84;99462.47;4158093;28;20282;-69
2022/10/12 05:06:36;;;;;;;12.52;6.38;;;;;;;-1.12;99.41;99473.91;4154556;28;20041;-70
2022/10/12 05:08:37;;;;;;;11.25;5.75;;;;;;;-1.19;99.28;99471.47;4154443;28;20488;-69
2022/10/12 05:10:38;;;;;;;13.80;6.00;;;;;;;-1.30;99.12;99463.63;4154840;28;20041;-70
2022/10/12 05:12:38;;;;;;;16.63;7.03;;;;;;;-1.36;98.56;99468.25;4155036;28;20065;-70
2022/10/12 05:14:39;;;;;;;10.52;5.80;;;;;;;-1.36;99.91;99462.03;4154637;28;20320;-70
2022/10/12 05:16:39;;;;;;;10.68;6.15;;;;;;;-1.27;100.00;99468.50;4154698;28;20046;-70
2022/10/12 05:18:39;;;;;;;13.23;5.80;;;;;;;-1.25;100.00;99474.47;4155595;28;20626;-70
2022/10/12 05:20:40;;;;;;;16.95;6.07;;;;;;;-1.30;99.87;99472.59;4154704;28;20536;-69
2022/10/12 05:22:40;;;;;;;13.63;6.10;;;;;;;-1.33;99.56;99473.13;4154333;28;20128;-69
2022/10/12 05:24:40;;;;;;;15.48;6.78;;;;;;;-1.31;99.77;99479.13;4154723;28;20037;-69
2022/10/12 05:26:41;;;;;;;16.85;5.90;;;;;;;-1.26;99.87;99462.78;4154510;28;20045;-69
2022/10/12 05:28:41;;;;;;;12.90;6.28;;;;;;;-1.20;99.84;99460.88;4154406;28;20063;-70
2022/10/12 05:30:41;;;;;;;15.05;6.47;;;;;;;-1.16;99.27;99470.09;4159498;28;20041;-70
2022/10/12 05:32:43;;;;;;;14.27;6.30;;;;;;;-1.20;98.42;99472.56;4154499;28;20541;-69
2022/10/12 05:34:43;;;;;;;11.50;5.95;;;;;;;-1.26;98.05;99468.22;4154970;28;20328;-70
2022/10/12 05:36:44;;;;;;;11.25;5.97;;;;;;;-1.30;99.01;99471.78;4154779;28;20525;-69
2022/10/12 05:38:44;;;;;;;10.90;5.40;;;;;;;-1.34;98.75;99474.22;4154275;28;20047;-69
2022/10/12 05:40:44;;;;;;;15.85;5.63;;;;;;;-1.30;99.12;99469.88;4158285;28;20478;-69
2022/10/12 05:42:45;;;;;;;12.63;6.00;;;;;;;-1.23;99.16;99470.41;4155065;28;20049;-69
2022/10/12 05:44:45;;;;;;;17.02;6.80;;;;;;;-1.10;99.33;99470.91;4157226;28;20057;-69
2022/10/12 05:46:45;;;;;;;10.18;5.35;;;;;;;-1.09;98.71;99477.94;4158164;28;20500;-69
2022/10/12 05:48:46;;;;;;;15.77;6.13;;;;;;;-1.09;97.90;99476.03;4161147;28;20048;-69
2022/10/12 05:50:46;;;;;;;10.57;5.80;;;;;;;-1.07;98.22;99471.16;4157969;28;20038;-69
2022/10/12 05:52:47;;;;;;;11.27;5.65;;;;;;;-1.07;97.76;99473.88;4158378;28;20046;-70
2022/10/12 05:54:47;;;;;;;12.68;6.47;;;;;;;-1.15;97.62;99469.03;4158356;28;20135;-69
2022/10/12 05:56:47;;;;;;;10.07;5.60;;;;;;;-1.16;98.17;99467.38;4158627;28;20494;-70
2022/10/12 05:58:48;;;;;;;13.68;5.68;;;;;;;-1.09;97.64;99462.47;4156920;28;20128;-69
2022/10/12 06:00:48;;;;;;;13.60;5.30;;;;;;;-1.06;97.37;99461.13;4157898;28;20354;-69
2022/10/12 06:02:49;;;;;;;13.57;5.95;;;;;;;-1.08;97.65;99466.81;4157651;28;20437;-69
2022/10/12 06:04:49;;;;;;;13.27;6.57;;;;;;;-1.04;98.45;99470.59;4158180;28;20041;-69
2022/10/12 06:06:49;;;;;;;13.45;5.53;;;;;;;-0.93;98.93;99474.91;4157601;28;20044;-69
2022/10/12 06:08:50;;;;;;;12.32;5.60;;;;;;;-0.92;97.80;99470.28;4156861;28;20041;-69
2022/10/12 06:10:50;;;;;;;12.73;5.50;;;;;;;-0.93;97.36;99471.38;4164807;28;20056;-69
2022/10/12 06:12:51;;;;;;;14.13;5.50;;;;;;;-0.88;97.73;99466.72;4156746;28;20529;-69
2022/10/12 06:14:51;;;;;;;12.85;5.28;;;;;;;-0.89;97.49;99464.31;4160393;28;20742;-69
2022/10/12 06:16:51;;;;;;;8.77;5.18;;;;;;;-0.86;97.65;99469.16;4157294;28;20056;-69
2022/10/12 06:18:52;;;;;;;16.00;5.60;;;;;;;-0.82;97.62;99461.28;4156768;28;20045;-69
2022/10/12 06:20:53;;;;;;;13.57;5.68;;;;;;;-0.83;97.75;99463.16;4158331;28;20515;-69
2022/10/12 06:22:54;;;;;;;8.97;5.50;;;;;;;-0.85;97.63;99459.91;4159588;28;20057;-69
2022/10/12 06:24:54;;;;;;;12.68;5.78;;;;;;;-0.87;97.97;99457.50;4159918;28;20299;-69
2022/10/12 06:26:54;;;;;;;13.10;5.43;;;;;;;-0.78;98.51;99448.75;4156978;28;20569;-69
2022/10/12 06:28:55;;;;;;;11.20;5.13;;;;;;;-0.76;98.51;99460.97;4156601;28;20607;-69
2022/10/12 06:30:58;;;;;;;16.40;5.63;;;;;;;-0.76;98.48;99460.16;4156856;28;20072;-69
2022/10/12 06:32:58;;;;;;;15.20;6.13;;;;;;;-0.72;98.53;99455.78;4156971;28;20288;-69
2022/10/12 06:34:58;;;;;;;9.48;5.28;;;;;;;-0.68;98.93;99465.81;4157212;28;20306;-69
2022/10/12 06:36:59;;;;;;;12.60;5.70;;;;;;;-0.60;98.75;99459.78;4158854;28;20051;-69
2022/10/12 06:38:59;;;;;;;11.55;4.65;;;;;;;-0.62;98.63;99461.97;4156628;28;20330;-69
2022/10/12 06:40:59;;;;;;;9.15;5.03;;;;;;;-0.55;99.08;99471.72;4157003;28;20501;-69
2022/10/12 06:43:01;;;;;;;14.73;5.10;;;;;;;-0.50;98.49;99475.22;4158980;28;20164;-69
2022/10/12 06:45:02;;;;;;;10.95;4.68;;;;;;;-0.44;98.10;99465.13;4157321;28;20089;-69
2022/10/12 06:47:03;;;;;;;10.40;4.82;;;;;;;-0.37;98.29;99469.16;4156844;28;20038;-70
2022/10/12 06:49:03;;;;;;;9.30;5.18;;;;;;;-0.28;97.67;99469.38;4156816;28;20412;-69
2022/10/12 06:51:04;;;;;;;11.20;5.07;;;;;;;-0.24;97.65;99465.00;4156642;28;20436;-70
2022/10/12 06:53:04;;;;;;;12.13;5.20;;;;;;;-0.20;98.04;99462.53;4157720;28;20042;-70
2022/10/12 06:55:05;;;;;;;9.32;4.97;;;;;;;-0.18;98.16;99469.28;4160470;28;20132;-69
2022/10/12 06:57:06;;;;;;;12.50;5.18;;;;;;;-0.14;98.16;99461.41;4160436;28;20033;-70
2022/10/12 07:02:03;;;;;;;18.33;5.85;;;;;;;-0.10;98.45;99471.41;4156095;28;20080;-70
2022/10/12 07:04:03;;;;;;;10.57;5.07;;;;;;;-0.09;98.71;99474.94;4158601;28;20073;-70
2022/10/12 07:06:06;;;;;;;10.43;4.43;;;;;;;-0.08;99.72;99473.88;4157278;28;20033;-70
2022/10/12 07:08:06;;;;;;;10.18;5.40;;;;;;;-0.04;99.72;99472.19;4157091;28;20375;-70
2022/10/12 07:10:07;;;;;;;17.70;4.45;;;;;;;-0.02;100.00;99470.00;4155039;28;20366;-70
2022/10/12 07:12:07;;;;;;;8.98;4.55;;;;;;;0.04;100.00;99468.06;4156753;28;20033;-70
2022/10/12 07:14:08;;;;;;;6.28;3.90;;;;;;;0.06;100.00;99461.22;4156003;28;20123;-70
2022/10/12 07:16:08;;;;;;;11.50;5.38;;;;;;;0.15;100.00;99464.16;4155781;28;20030;-70
2022/10/12 07:18:08;;;;;;;9.52;4.88;;;;;;;0.20;100.00;99470.38;4157335;28;20029;-70
2022/10/12 07:20:08;;;;;;;9.70;4.63;;;;;;;0.29;100.00;99473.28;4161064;28;20083;-70
2022/10/12 07:22:09;;;;;;;18.75;4.82;;;;;;;0.34;100.00;99464.28;4156485;28;20045;-70
2022/10/12 07:24:12;;;;;;;9.98;5.00;;;;;;;0.40;100.00;99469.34;4156578;28;20438;-70
2022/10/12 07:26:13;;;;;;;9.35;4.55;;;;;;;0.47;100.00;99466.31;4156641;28;20072;-70
2022/10/12 07:28:13;;;;;;;9.02;5.80;;;;;;;0.53;100.00;99463.25;4156506;28;20642;-70
2022/10/12 07:30:13;;;;;;;9.20;4.72;;;;;;;0.58;100.00;99459.66;4155361;28;20025;-70
2022/10/12 07:32:14;;;;;;;13.35;5.10;;;;;;;0.67;100.00;99465.28;4162228;28;20037;-70
2022/10/12 07:34:14;;;;;;;11.93;5.07;;;;;;;0.73;100.00;99464.13;4156741;28;20029;-70
2022/10/12 07:36:14;;;;;;;11.43;4.32;;;;;;;0.78;100.00;99464.06;4156759;28;20064;-70
2022/10/12 07:38:15;;;;;;;8.90;4.22;;;;;;;0.82;100.00;99456.94;4155190;28;20052;-70
2022/10/12 07:40:15;;;;;;;7.53;4.47;;;;;;;0.88;100.00;99457.69;4158734;28;20119;-70
2022/10/12 07:42:15;;;;;;;7.05;4.50;;;;;;;0.94;100.00;99460.06;4156896;28;20071;-70
2022/10/12 07:44:15;;;;;;;12.45;5.25;;;;;;;0.98;100.00;99452.13;4155091;28;20358;-70
2022/10/12 07:46:16;;;;;;;9.82;5.50;;;;;;;1.06;100.00;99452.28;4156457;28;20068;-70
2022/10/12 07:48:16;;;;;;;9.50;5.80;;;;;;;1.16;100.00;99456.81;4159529;28;20544;-70
2022/10/12 07:50:16;;;;;;;10.35;5.63;;;;;;;1.23;100.00;99464.63;4155036;28;20042;-70
2022/10/12 07:52:17;;;;;;;15.80;5.57;;;;;;;1.30;100.00;99451.44;4156635;28;20375;-70
2022/10/12 07:54:17;;;;;;;12.43;6.32;;;;;;;1.37;100.00;99449.16;4155998;28;20029;-70
2022/10/12 07:56:17;;;;;;;13.40;6.40;;;;;;;1.45;100.00;99448.50;4155852;28;20481;-70
2022/10/12 07:58:17;;;;;;;13.93;6.15;;;;;;;1.57;100.00;99453.50;4158469;28;20087;-70
2022/10/12 08:00:19;;;;;;;9.63;5.40;;;;;;;1.64;100.00;99452.03;4159740;28;20601;-70
2022/10/12 08:02:20;;;;;;;11.45;5.55;;;;;;;1.72;100.00;99450.56;4156577;28;20797;-70
2022/10/12 08:04:20;;;;;;;12.10;5.32;;;;;;;1.80;100.00;99444.44;4155344;28;20087;-70
2022/10/12 08:06:23;;;;;;;13.57;6.18;;;;;;;1.91;100.00;99453.28;4156322;28;20083;-70
2022/10/12 08:08:24;;;;;;;9.85;5.68;;;;;;;2.00;100.00;99446.03;4158795;28;20077;-70
2022/10/12 08:10:24;;;;;;;13.10;5.32;;;;;;;2.10;100.00;99445.06;4158983;28;20040;-70
2022/10/12 08:12:25;;;;;;;17.10;6.70;;;;;;;2.19;100.00;99444.06;4155536;28;20224;-70
2022/10/12 08:14:25;;;;;;;10.73;6.00;;;;;;;2.29;100.00;99445.81;4156303;28;20037;-70
2022/10/12 08:16:26;;;;;;;15.70;6.93;;;;;;;2.39;100.00;99444.81;4155620;28;20208;-70
2022/10/12 08:18:26;;;;;;;12.43;6.80;;;;;;;2.45;100.00;99447.16;4154221;28;20042;-70
2022/10/12 08:20:26;;;;;;;14.38;7.30;;;;;;;2.48;100.00;99445.75;4156101;28;20048;-70
2022/10/12 08:22:26;;;;;;;11.02;7.18;;;;;;;2.58;100.00;99445.59;4157043;28;20037;-70
2022/10/12 08:24:27;;;;;;;11.43;6.18;;;;;;;2.65;100.00;99437.81;4156096;28;20389;-70
2022/10/12 08:26:28;;;;;;;9.65;6.18;;;;;;;2.79;100.00;99451.44;4155302;28;20057;-70
2022/10/12 08:28:28;;;;;;;11.85;6.45;;;;;;;2.93;100.00;99441.34;4155064;28;20087;-70
2022/10/12 08:30:28;;;;;;;14.52;7.40;;;;;;;3.02;100.00;99444.97;4155890;28;20037;-70
2022/10/12 08:32:30;;;;;;;14.23;7.35;;;;;;;3.16;100.00;99441.44;4154541;28;20473;-70
2022/10/12 08:34:30;;;;;;;13.23;6.97;;;;;;;3.26;100.00;99441.22;4156243;28;20154;-70
2022/10/12 08:36:31;;;;;;;9.57;5.32;;;;;;;3.32;99.90;99429.88;4155366;28;20112;-70
2022/10/12 08:38:32;;;;;;;11.45;6.30;;;;;;;3.46;99.29;99438.03;4155441;28;20103;-70
2022/10/12 08:40:42;;;;;;;12.27;6.85;;;;;;;3.56;99.74;99434.28;4155300;28;20732;-70
2022/10/12 08:43:09;;;;;;;14.18;6.57;;;;;;;3.64;99.23;99422.56;4155315;28;20458;-70
2022/10/12 08:45:34;;;;;;;10.85;6.30;;;;;;;3.74;98.94;99430.56;4155913;28;20231;-70
2022/10/12 08:47:46;;;;;;;11.20;7.45;;;;;;;3.83;99.79;99428.69;4155148;28;20044;-70
2022/10/12 08:49:47;;;;;;;;;;;;;;;3.97;100.00;99425.88;4154859;28;20056;-70
2022/10/12 08:51:51;;;;;;;10.32;6.43;;;;;;;4.06;99.49;99424.03;4155712;28;19960;-70
2022/10/12 08:54:02;;;;;;;11.88;6.97;;;;;;;4.19;100.00;99419.59;4155534;28;20034;-70
2022/10/12 08:56:03;;;;;;;8.48;6.80;;;;;;;4.32;100.00;99418.72;4154945;28;20636;-70
2022/10/12 08:58:13;;;;;;;15.05;7.28;;;;;;;4.48;100.00;99421.88;4154222;28;20173;-70
2022/10/12 09:00:14;;;;;;;10.85;6.05;;;;;;;4.57;100.00;99417.25;4154777;28;20422;-70
2022/10/12 09:02:33;;;;;;;14.60;6.65;;;;;;;4.68;99.48;99420.50;4155400;28;20100;-70
2022/10/12 09:04:51;;;;;;;11.00;6.50;;;;;;;4.83;98.75;99427.50;4155006;28;20200;-70
2022/10/12 09:07:04;;;;;;;8.05;4.97;;;;;;;4.87;95.85;99420.25;4156331;28;20129;-70
2022/10/12 09:09:46;;;;;;;11.63;5.85;;;;;;;4.99;94.50;99421.25;4155051;28;20037;-70
2022/10/12 09:12:07;;;;;;;12.30;5.45;;;;;;;5.12;95.25;99413.22;4141844;28;20053;-70
2022/10/12 09:14:14;;;;;;;12.88;5.63;;;;;;;5.23;95.99;99414.56;4155220;28;20135;-70
2022/10/12 09:16:39;;;;;;;12.55;6.32;;;;;;;5.38;96.64;99419.59;4158849;28;20474;-71
2022/10/12 09:18:44;;;;;;;6.95;5.05;;;;;;;5.49;97.00;99411.84;4153344;28;20404;-70
2022/10/12 09:20:52;;;;;;;7.18;5.75;;;;;;;5.58;95.47;99413.47;4155199;28;20044;-70
2022/10/12 09:23:03;;;;;;;11.25;5.40;;;;;;;5.73;96.91;99409.44;4159191;28;20624;-70
2022/10/12 09:25:11;;;;;;;12.05;6.45;;;;;;;5.82;95.68;99414.91;4161327;28;20053;-70
2022/10/12 09:27:17;;;;;;;10.40;6.10;;;;;;;5.94;96.27;99401.34;4154527;28;20041;-70
2022/10/12 09:29:28;;;;;;;13.30;5.85;;;;;;;6.08;96.14;99418.47;4154257;28;20049;-70
2022/10/12 09:31:55;;;;;;;12.43;6.82;;;;;;;6.20;96.58;99406.81;4155754;28;20490;-70
2022/10/12 09:34:01;;;;;;;8.45;5.65;;;;;;;6.30;95.75;99401.00;4155445;28;20156;-70
2022/10/12 09:36:01;;;;;;;11.27;5.97;;;;;;;6.39;95.37;99401.78;4154643;28;20045;-71
2022/10/12 09:38:02;;;;;;;13.52;6.88;;;;;;;6.48;95.55;99404.50;4154147;28;20025;-71